Day Rural, Kentucky
Current Conditions -  °F | °C
As of 4:55 AM on Tuesday 21 Oct 2014 (Local Time) from KLNP Reporting Station
Overcast Overcast  
Wind Chill: 50°   Ceiling: 1500
Heat Index: 50°   Visibility: 10mi
Dew Point: 50°   Wind: 7mph
Humidity: 100%   Direction: 230°SW
Pressure: 29.98"   Gusts: NA
Location:  37.1283°N, 82.8498°W
Report Text: KLNP 210855Z AUTO 23006KT 10SM BKN015 OVC034 10/10 A2998 RMK AO2
Loading
Personal Weather Stations






























Interactive Weather Map
Tropical Storm Tracking
New forecast layout! Learn more

10-Day Weather Forecast

Advertisements
Track Severe Weather on mobile